createdAt,value
2023-11-13T00:01:50.717Z,52.53
2023-11-13T00:04:17.171Z,52.47
2023-11-13T00:06:43.631Z,52.46
2023-11-13T00:09:10.048Z,52.50
2023-11-13T00:11:36.459Z,52.56
2023-11-13T00:14:02.887Z,52.54
2023-11-13T00:16:29.375Z,52.72
2023-11-13T00:18:57.147Z,52.51
2023-11-13T00:21:23.621Z,52.69
2023-11-13T00:23:50.070Z,52.69
2023-11-13T00:26:16.986Z,52.86
2023-11-13T00:28:51.091Z,52.67
2023-11-13T00:31:17.662Z,52.78
2023-11-13T00:33:44.239Z,52.89
2023-11-13T00:36:10.645Z,52.84
2023-11-13T00:38:37.036Z,52.89
2023-11-13T00:41:03.818Z,52.81
2023-11-13T00:43:30.266Z,52.75
2023-11-13T00:45:56.791Z,52.91
2023-11-13T00:48:23.260Z,52.71
2023-11-13T00:50:49.651Z,52.91
2023-11-13T00:53:16.158Z,52.86
2023-11-13T00:55:42.554Z,52.87
2023-11-13T00:58:09.004Z,52.96
2023-11-13T01:00:35.578Z,52.92
2023-11-13T01:03:02.317Z,52.85
2023-11-13T01:05:28.850Z,53.00
2023-11-13T01:07:55.291Z,52.79
2023-11-13T01:10:22.792Z,52.85
2023-11-13T01:12:49.233Z,52.87
2023-11-13T01:15:15.642Z,52.92
2023-11-13T01:17:43.135Z,53.01
2023-11-13T01:20:09.823Z,53.11
2023-11-13T01:22:36.248Z,52.92
2023-11-13T01:25:02.648Z,52.98
2023-11-13T01:27:29.261Z,52.97
2023-11-13T01:29:55.690Z,52.90
2023-11-13T01:32:22.188Z,53.08
2023-11-13T01:34:48.651Z,53.00
2023-11-13T01:37:15.669Z,53.03
2023-11-13T01:39:43.087Z,52.96
2023-11-13T01:42:09.491Z,52.94
2023-11-13T01:44:35.915Z,53.06
2023-11-13T01:47:02.364Z,53.07
2023-11-13T01:49:28.775Z,53.14
2023-11-13T01:51:55.806Z,53.01
2023-11-13T01:54:22.473Z,52.86
2023-11-13T01:56:48.870Z,52.90
2023-11-13T01:59:15.304Z,52.95
2023-11-13T02:01:41.752Z,53.02
2023-11-13T02:04:08.246Z,53.18
2023-11-13T02:06:34.659Z,53.19
2023-11-13T02:09:01.079Z,52.95
2023-11-13T02:11:27.505Z,53.22
2023-11-13T02:13:54.114Z,53.13
2023-11-13T02:16:20.780Z,52.80
2023-11-13T02:18:47.275Z,53.12
2023-11-13T02:21:13.688Z,53.18
2023-11-13T02:23:40.106Z,52.89
2023-11-13T02:26:15.628Z,53.23
2023-11-13T02:28:42.259Z,53.07
2023-11-13T02:31:08.748Z,53.06
2023-11-13T02:33:35.156Z,53.08
2023-11-13T02:36:01.540Z,53.02
2023-11-13T02:38:27.908Z,52.99
2023-11-13T02:40:54.341Z,52.99
2023-11-13T02:43:20.762Z,53.08
2023-11-13T02:45:47.176Z,52.90
2023-11-13T02:48:13.787Z,52.94
2023-11-13T02:50:41.227Z,53.00
2023-11-13T02:53:07.640Z,53.00
2023-11-13T02:55:34.026Z,52.74
2023-11-13T02:58:00.431Z,52.93
2023-11-13T03:00:26.883Z,52.87
2023-11-13T03:02:53.426Z,52.94
2023-11-13T03:05:19.905Z,52.95
2023-11-13T03:07:46.311Z,52.95
2023-11-13T03:10:12.997Z,52.76
2023-11-13T03:12:40.430Z,52.95
2023-11-13T03:15:07.057Z,52.71
2023-11-13T03:17:33.923Z,52.82
2023-11-13T03:20:00.432Z,52.89
2023-11-13T03:22:27.806Z,52.94
2023-11-13T03:24:54.276Z,52.86
2023-11-13T03:27:20.815Z,53.08
2023-11-13T03:29:47.249Z,52.93
2023-11-13T03:32:13.865Z,52.84
2023-11-13T03:34:41.969Z,53.00
2023-11-13T03:37:08.442Z,53.16
2023-11-13T03:39:34.842Z,53.14
2023-11-13T03:42:01.221Z,53.04
2023-11-13T03:44:27.643Z,53.20
2023-11-13T03:46:54.155Z,52.96
2023-11-13T03:49:20.622Z,52.92
2023-11-13T03:51:47.849Z,52.83
2023-11-13T03:54:14.260Z,52.89
2023-11-13T03:56:41.285Z,52.99
2023-11-13T03:59:08.409Z,53.03
2023-11-13T04:01:34.838Z,52.89
2023-11-13T04:04:01.431Z,52.81
2023-11-13T04:06:27.870Z,52.93
2023-11-13T04:08:54.292Z,52.89
2023-11-13T04:11:20.683Z,52.90
2023-11-13T04:13:47.851Z,52.86
2023-11-13T04:16:15.535Z,52.99
2023-11-13T04:18:42.272Z,52.88
2023-11-13T04:21:08.812Z,52.96
2023-11-13T04:23:35.234Z,52.87
2023-11-13T04:26:01.621Z,52.75
2023-11-13T04:28:32.173Z,52.88
2023-11-13T04:30:58.784Z,52.74
2023-11-13T04:33:25.213Z,52.79
2023-11-13T04:35:51.672Z,52.77
2023-11-13T04:38:18.174Z,52.79
2023-11-13T04:40:46.141Z,52.77
2023-11-13T04:43:13.040Z,52.97
2023-11-13T04:45:40.611Z,52.91
2023-11-13T04:48:07.226Z,52.76
2023-11-13T04:50:33.917Z,52.78
2023-11-13T04:53:00.369Z,52.67
2023-11-13T04:55:26.806Z,52.89
2023-11-13T04:57:53.232Z,52.82
2023-11-13T05:00:19.696Z,52.82
2023-11-13T05:02:46.326Z,53.00
2023-11-13T05:05:13.121Z,52.97
2023-11-13T05:07:40.026Z,52.96
2023-11-13T05:10:07.105Z,52.95
2023-11-13T05:12:33.548Z,52.84
2023-11-13T05:14:59.972Z,52.99
2023-11-13T05:17:26.597Z,52.83
2023-11-13T05:19:53.045Z,52.87
2023-11-13T05:22:19.721Z,52.87
2023-11-13T05:24:46.180Z,53.08
2023-11-13T05:27:14.245Z,52.81
2023-11-13T05:29:41.152Z,53.05
2023-11-13T05:32:07.640Z,52.93
2023-11-13T05:34:34.169Z,52.89
2023-11-13T05:37:00.659Z,53.26
2023-11-13T05:39:27.068Z,53.01
2023-11-13T05:41:53.449Z,53.20
2023-11-13T05:44:19.845Z,53.24
2023-11-13T05:46:46.311Z,53.15
2023-11-13T05:49:13.453Z,52.88
2023-11-13T05:51:40.222Z,53.07
2023-11-13T05:54:06.616Z,53.15
2023-11-13T05:56:33.160Z,52.97
2023-11-13T05:58:59.541Z,53.07
2023-11-13T06:01:32.285Z,53.18
2023-11-13T06:03:59.545Z,53.07
2023-11-13T06:06:26.550Z,53.39
2023-11-13T06:08:52.975Z,53.12
2023-11-13T06:11:20.533Z,53.48
2023-11-13T06:13:47.584Z,54.24
2023-11-13T06:16:14.117Z,54.92
2023-11-13T06:18:51.266Z,54.16
2023-11-13T06:21:19.255Z,53.51
2023-11-13T06:23:45.639Z,53.67
2023-11-13T06:26:13.728Z,53.55
2023-11-13T06:28:40.263Z,53.47
2023-11-13T06:31:06.830Z,53.47
2023-11-13T06:33:33.282Z,53.34
2023-11-13T06:35:59.686Z,53.53
2023-11-13T06:38:26.094Z,53.49
2023-11-13T06:40:52.494Z,53.33
2023-11-13T06:43:20.432Z,53.32
2023-11-13T06:45:46.891Z,53.56
2023-11-13T06:48:13.315Z,53.25
2023-11-13T06:50:39.723Z,53.47
2023-11-13T06:53:06.135Z,53.33
2023-11-13T06:55:33.766Z,52.98
2023-11-13T06:58:00.283Z,53.02
2023-11-13T07:00:26.700Z,53.34
2023-11-13T07:02:53.272Z,53.25
2023-11-13T07:05:20.711Z,52.80
2023-11-13T07:07:48.900Z,52.79
2023-11-13T07:10:15.377Z,52.92
2023-11-13T07:12:41.838Z,52.90
2023-11-13T07:15:08.290Z,52.82
2023-11-13T07:17:34.714Z,52.67
2023-11-13T07:20:01.224Z,52.74
2023-11-13T07:22:29.344Z,52.56
2023-11-13T07:24:56.248Z,52.58
2023-11-13T07:27:22.848Z,52.64
2023-11-13T07:29:50.622Z,52.78
2023-11-13T07:32:17.264Z,52.81
2023-11-13T07:34:43.702Z,52.72
2023-11-13T07:37:10.147Z,52.94
2023-11-13T07:39:36.569Z,52.65
2023-11-13T07:42:04.224Z,52.87
2023-11-13T07:44:30.650Z,52.70
2023-11-13T07:46:57.145Z,52.84
2023-11-13T07:49:23.668Z,52.48
2023-11-13T07:51:50.092Z,52.38
2023-11-13T07:54:16.476Z,51.05
2023-11-13T07:56:42.859Z,49.36
2023-11-13T07:59:12.815Z,49.41
2023-11-13T08:01:39.438Z,48.77
2023-11-13T08:04:08.516Z,49.54
2023-11-13T08:06:35.081Z,49.92
2023-11-13T08:09:09.052Z,49.70
2023-11-13T08:11:36.030Z,50.03
2023-11-13T08:14:02.836Z,50.18
2023-11-13T08:16:29.322Z,49.49
2023-11-13T08:18:57.812Z,49.44
2023-11-13T08:21:24.290Z,49.69
2023-11-13T08:23:50.679Z,49.26
2023-11-13T08:26:17.073Z,49.20
2023-11-13T08:28:45.523Z,49.53
2023-11-13T08:31:17.036Z,49.44
2023-11-13T08:33:43.710Z,49.01
2023-11-13T08:36:12.522Z,49.43
2023-11-13T08:38:38.930Z,49.51
2023-11-13T08:41:05.435Z,49.88
2023-11-13T08:43:33.503Z,49.44
2023-11-13T08:46:02.856Z,48.98
2023-11-13T08:48:29.690Z,49.54
2023-11-13T08:51:00.506Z,49.29
2023-11-13T08:53:29.564Z,49.81
2023-11-13T08:55:57.832Z,48.43
2023-11-13T08:58:24.395Z,47.11
2023-11-13T09:00:50.838Z,46.02
2023-11-13T09:03:18.093Z,45.21
2023-11-13T09:05:44.591Z,44.79
2023-11-13T09:08:11.030Z,44.15
2023-11-13T09:10:37.759Z,44.00
2023-11-13T09:13:04.314Z,44.13
2023-11-13T09:15:31.938Z,43.94
2023-11-13T09:18:02.341Z,43.98
2023-11-13T09:20:28.865Z,45.14
2023-11-13T09:22:55.242Z,45.31
2023-11-13T09:25:23.007Z,45.50
2023-11-13T09:27:50.050Z,46.03
2023-11-13T09:30:19.395Z,44.61
2023-11-13T09:32:50.197Z,44.96
2023-11-13T09:35:20.118Z,44.97
2023-11-13T09:37:48.206Z,46.12
2023-11-13T09:40:18.410Z,46.03
2023-11-13T09:42:45.141Z,45.93
2023-11-13T09:45:13.885Z,45.64
2023-11-13T09:47:41.805Z,46.05
2023-11-13T09:50:16.579Z,45.50
2023-11-13T09:52:47.113Z,45.56
2023-11-13T09:55:16.235Z,45.65
2023-11-13T09:57:42.689Z,46.17
2023-11-13T10:00:17.918Z,45.92
2023-11-13T10:02:45.362Z,46.14
2023-11-13T10:05:13.452Z,45.94
2023-11-13T10:07:41.748Z,46.30
2023-11-13T10:10:08.277Z,46.48
2023-11-13T10:12:34.755Z,46.87
2023-11-13T10:15:09.521Z,46.74
2023-11-13T10:17:47.893Z,47.00
2023-11-13T10:20:18.332Z,46.67
2023-11-13T10:22:45.823Z,46.79
2023-11-13T10:25:12.830Z,46.76
2023-11-13T10:27:41.256Z,47.10
2023-11-13T10:30:07.706Z,46.94
2023-11-13T10:32:34.137Z,47.58
2023-11-13T10:35:00.556Z,47.39
2023-11-13T10:37:27.107Z,47.74
2023-11-13T10:39:53.514Z,47.64
2023-11-13T10:42:24.430Z,47.79
2023-11-13T10:44:52.357Z,47.74
2023-11-13T10:47:24.295Z,47.83
2023-11-13T10:49:51.501Z,48.07
2023-11-13T10:52:18.323Z,48.21
2023-11-13T10:54:49.427Z,48.01
2023-11-13T10:57:17.175Z,48.19
2023-11-13T10:59:43.762Z,48.08
2023-11-13T11:02:13.458Z,48.27
2023-11-13T11:04:43.923Z,48.33
2023-11-13T11:07:10.697Z,48.59
2023-11-13T11:09:37.982Z,48.47
2023-11-13T11:12:04.645Z,48.71
2023-11-13T11:14:35.018Z,48.51
2023-11-13T11:17:06.739Z,48.89
2023-11-13T11:19:36.161Z,48.71
2023-11-13T11:22:07.093Z,48.97
2023-11-13T11:24:45.606Z,48.77
2023-11-13T11:27:12.026Z,49.12
2023-11-13T11:29:38.889Z,49.01
2023-11-13T11:32:14.555Z,49.14
2023-11-13T11:34:43.183Z,49.29
2023-11-13T11:37:10.200Z,49.19
2023-11-13T11:39:47.188Z,49.35
2023-11-13T11:42:20.329Z,49.19
2023-11-13T11:44:47.554Z,49.55
2023-11-13T11:47:29.737Z,49.29
2023-11-13T11:49:57.343Z,49.54
2023-11-13T11:52:39.483Z,49.65
2023-11-13T11:55:06.017Z,49.61
2023-11-13T11:57:32.432Z,49.67
2023-11-13T12:00:01.887Z,49.59
2023-11-13T12:02:40.199Z,49.58
2023-11-13T12:05:08.983Z,49.64
2023-11-13T12:07:35.681Z,49.85
2023-11-13T12:10:11.097Z,49.70
2023-11-13T12:12:42.765Z,49.99
2023-11-13T12:15:09.310Z,49.99
2023-11-13T12:17:36.124Z,50.09
2023-11-13T12:20:13.525Z,50.08
2023-11-13T12:22:44.618Z,50.16
2023-11-13T12:25:11.866Z,50.30
2023-11-13T12:27:41.473Z,50.10
2023-11-13T12:30:25.300Z,50.28
2023-11-13T12:32:54.742Z,50.44
2023-11-13T12:35:21.757Z,50.40
2023-11-13T12:37:48.874Z,50.23
2023-11-13T12:40:17.894Z,50.29
2023-11-13T12:42:44.411Z,50.25
2023-11-13T12:45:14.057Z,50.24
2023-11-13T12:47:44.096Z,50.28
2023-11-13T12:50:13.018Z,50.53
2023-11-13T12:52:39.621Z,50.35
2023-11-13T12:55:12.107Z,50.67
2023-11-13T12:57:39.825Z,50.64
2023-11-13T13:00:06.514Z,50.71
2023-11-13T13:02:34.883Z,50.46
2023-11-13T13:05:03.319Z,50.58
2023-11-13T13:07:31.619Z,50.92
2023-11-13T13:09:58.041Z,50.84
2023-11-13T13:12:24.439Z,50.64
2023-11-13T13:14:53.264Z,50.83
2023-11-13T13:17:22.857Z,50.88
2023-11-13T13:19:49.529Z,50.81
2023-11-13T13:22:15.935Z,50.91
2023-11-13T13:24:42.330Z,51.11
2023-11-13T13:27:10.747Z,51.75
2023-11-13T13:29:37.934Z,51.17
2023-11-13T13:32:06.478Z,51.14
2023-11-13T13:34:32.969Z,50.51
2023-11-13T13:36:59.675Z,50.52
2023-11-13T13:39:26.076Z,50.44
2023-11-13T13:41:52.867Z,50.27
2023-11-13T13:44:19.342Z,50.30
2023-11-13T13:46:45.854Z,50.25
2023-11-13T13:49:12.379Z,50.21
2023-11-13T13:51:39.074Z,49.81
2023-11-13T13:54:08.159Z,49.58
2023-11-13T13:56:35.980Z,49.83
2023-11-13T13:59:04.126Z,50.06
2023-11-13T14:01:30.622Z,50.35
2023-11-13T14:03:57.196Z,49.82
2023-11-13T14:06:23.759Z,49.96
2023-11-13T14:08:50.181Z,50.73
2023-11-13T14:11:20.004Z,51.06
2023-11-13T14:13:47.792Z,50.94
2023-11-13T14:16:15.412Z,45.57
2023-11-13T14:18:43.032Z,50.88
2023-11-13T14:21:10.309Z,50.91
2023-11-13T14:23:37.551Z,51.30
2023-11-13T14:26:04.114Z,50.46
2023-11-13T14:28:32.171Z,47.96
2023-11-13T14:30:58.712Z,47.19
2023-11-13T14:33:25.210Z,47.65
2023-11-13T14:35:52.132Z,48.29
2023-11-13T14:38:18.893Z,48.15
2023-11-13T14:40:45.357Z,48.38
2023-11-13T14:43:11.822Z,48.69
2023-11-13T14:45:39.609Z,49.18
2023-11-13T14:48:06.775Z,49.00
2023-11-13T14:50:33.498Z,48.89
2023-11-13T14:52:59.954Z,48.96
2023-11-13T14:55:27.518Z,49.13
2023-11-13T14:57:54.198Z,49.29
2023-11-13T15:00:24.763Z,49.69
2023-11-13T15:02:51.655Z,49.91
2023-11-13T15:05:18.074Z,48.97
2023-11-13T15:07:44.613Z,49.78
2023-11-13T15:10:13.630Z,49.88
2023-11-13T15:12:40.941Z,49.57
2023-11-13T15:15:09.166Z,49.81
2023-11-13T15:17:37.839Z,49.37
2023-11-13T15:20:11.540Z,48.96
2023-11-13T15:23:00.525Z,49.00
2023-11-13T15:25:26.498Z,48.99
2023-11-13T15:27:52.920Z,48.79
2023-11-13T15:30:21.148Z,48.83
2023-11-13T15:32:47.797Z,48.67
2023-11-13T15:35:14.321Z,48.31
2023-11-13T15:37:40.967Z,48.46
2023-11-13T15:40:07.708Z,49.52
2023-11-13T15:42:34.169Z,49.81
2023-11-13T15:45:00.742Z,50.23
2023-11-13T15:47:27.637Z,49.81
2023-11-13T15:49:54.442Z,49.73
2023-11-13T15:52:22.340Z,50.09
2023-11-13T15:54:49.011Z,49.54
2023-11-13T15:57:15.416Z,49.45
2023-11-13T15:59:41.945Z,49.51
2023-11-13T16:02:08.631Z,49.29
2023-11-13T16:04:35.119Z,49.12
2023-11-13T16:07:02.589Z,48.77
2023-11-13T16:09:29.218Z,48.76
2023-11-13T16:11:55.673Z,48.52
2023-11-13T16:14:22.076Z,49.46
2023-11-13T16:16:48.691Z,49.34
2023-11-13T16:19:16.201Z,49.43
2023-11-13T16:21:42.909Z,49.57
2023-11-13T16:24:09.338Z,49.37
2023-11-13T16:26:36.593Z,49.45
2023-11-13T16:29:05.879Z,49.65
2023-11-13T16:31:32.536Z,50.08
2023-11-13T16:33:59.041Z,49.77
2023-11-13T16:36:25.838Z,49.62
2023-11-13T16:38:52.410Z,50.39
2023-11-13T16:41:24.902Z,49.88
2023-11-13T16:43:51.560Z,50.04
2023-11-13T16:46:18.017Z,49.58
2023-11-13T16:48:46.413Z,49.57
2023-11-13T16:51:13.299Z,49.81
2023-11-13T16:53:40.046Z,49.70
2023-11-13T16:56:07.067Z,49.81
2023-11-13T16:58:33.511Z,49.71
2023-11-13T17:00:59.995Z,49.95
2023-11-13T17:03:26.718Z,50.00
2023-11-13T17:05:53.374Z,50.30
2023-11-13T17:08:19.785Z,49.38
2023-11-13T17:10:46.354Z,49.05
2023-11-13T17:13:14.696Z,49.20
2023-11-13T17:15:44.145Z,48.93
2023-11-13T17:18:10.758Z,48.86
2023-11-13T17:20:40.817Z,48.72
2023-11-13T17:23:07.908Z,48.39
2023-11-13T17:25:34.520Z,49.07
2023-11-13T17:28:00.942Z,49.12
2023-11-13T17:30:27.378Z,49.52
2023-11-13T17:32:53.823Z,49.62
2023-11-13T17:35:21.384Z,49.68
2023-11-13T17:37:49.529Z,49.89
2023-11-13T17:40:18.382Z,49.96
2023-11-13T17:42:44.846Z,50.02
2023-11-13T17:45:11.505Z,50.48
2023-11-13T17:47:38.007Z,50.31
2023-11-13T17:50:05.058Z,50.12
2023-11-13T17:52:31.991Z,50.08
2023-11-13T17:54:58.428Z,50.26
2023-11-13T17:57:24.841Z,50.16
2023-11-13T17:59:51.340Z,50.37
2023-11-13T18:02:17.869Z,50.17
2023-11-13T18:04:44.394Z,50.52
2023-11-13T18:07:10.837Z,50.61
2023-11-13T18:09:37.638Z,50.58
2023-11-13T18:12:04.531Z,50.37
2023-11-13T18:14:31.487Z,50.24
2023-11-13T18:16:57.994Z,50.03
2023-11-13T18:19:24.597Z,50.09
2023-11-13T18:21:51.791Z,50.50
2023-11-13T18:24:19.516Z,50.64
2023-11-13T18:26:45.927Z,50.57
2023-11-13T18:29:12.392Z,50.54
2023-11-13T18:31:38.927Z,50.86
2023-11-13T18:34:06.791Z,50.28
2023-11-13T18:36:34.391Z,50.67
2023-11-13T18:39:00.806Z,50.78
2023-11-13T18:41:27.270Z,51.04
2023-11-13T18:43:53.735Z,50.86
2023-11-13T18:46:22.064Z,50.86
2023-11-13T18:48:48.518Z,50.66
2023-11-13T18:51:17.423Z,50.74
2023-11-13T18:53:44.153Z,50.62
2023-11-13T18:56:12.649Z,50.52
2023-11-13T18:58:41.851Z,50.31
2023-11-13T19:01:11.141Z,49.94
2023-11-13T19:03:37.732Z,50.55
2023-11-13T19:06:06.777Z,50.53
2023-11-13T19:08:37.677Z,50.44
2023-11-13T19:11:04.715Z,50.71
2023-11-13T19:13:31.158Z,50.84
2023-11-13T19:16:00.403Z,50.67
2023-11-13T19:18:26.821Z,50.93
2023-11-13T19:20:53.210Z,51.07
2023-11-13T19:23:19.630Z,51.05
2023-11-13T19:25:47.418Z,51.00
2023-11-13T19:28:15.591Z,50.82
2023-11-13T19:30:42.019Z,51.21
2023-11-13T19:33:08.498Z,51.13
2023-11-13T19:35:36.648Z,50.87
2023-11-13T19:38:03.216Z,51.41
2023-11-13T19:40:29.762Z,51.19
2023-11-13T19:42:56.275Z,51.21
2023-11-13T19:45:22.760Z,51.40
2023-11-13T19:47:49.238Z,51.18
2023-11-13T19:50:15.709Z,51.31
2023-11-13T19:52:47.699Z,51.09
2023-11-13T19:55:14.688Z,50.91
2023-11-13T19:57:42.534Z,51.11
2023-11-13T20:00:11.216Z,51.26
2023-11-13T20:02:42.448Z,51.27
2023-11-13T20:05:09.829Z,51.51
2023-11-13T20:07:37.238Z,51.52
2023-11-13T20:10:03.825Z,51.47
2023-11-13T20:12:30.216Z,51.46
2023-11-13T20:14:56.743Z,51.49
2023-11-13T20:17:24.857Z,51.66
2023-11-13T20:19:51.969Z,51.42
2023-11-13T20:22:22.028Z,51.44
2023-11-13T20:24:49.114Z,51.48
2023-11-13T20:27:16.539Z,51.64
2023-11-13T20:29:45.001Z,51.51
2023-11-13T20:32:11.488Z,51.40
2023-11-13T20:34:38.281Z,51.50
2023-11-13T20:37:07.061Z,51.42
2023-11-13T20:39:33.503Z,51.56
2023-11-13T20:42:00.835Z,51.41
2023-11-13T20:44:27.663Z,51.40
2023-11-13T20:46:54.636Z,51.60
2023-11-13T20:49:22.663Z,51.59
2023-11-13T20:51:49.588Z,52.02
2023-11-13T20:54:16.012Z,51.11
2023-11-13T20:56:42.418Z,50.87
2023-11-13T20:59:08.940Z,50.40
2023-11-13T21:01:35.400Z,50.67
2023-11-13T21:04:01.868Z,50.35
2023-11-13T21:06:28.267Z,50.84
2023-11-13T21:08:54.772Z,51.05
2023-11-13T21:11:21.213Z,51.19
2023-11-13T21:13:47.786Z,51.33
2023-11-13T21:16:14.326Z,50.63
2023-11-13T21:18:40.954Z,50.67
2023-11-13T21:21:07.905Z,51.05
2023-11-13T21:23:34.461Z,51.74
2023-11-13T21:26:03.604Z,51.80
2023-11-13T21:28:30.049Z,51.94
2023-11-13T21:30:56.528Z,51.47
2023-11-13T21:33:23.084Z,51.63
2023-11-13T21:35:49.555Z,51.65
2023-11-13T21:38:15.963Z,52.02
2023-11-13T21:40:44.621Z,51.70
2023-11-13T21:43:11.148Z,51.65
2023-11-13T21:45:38.642Z,51.79
2023-11-13T21:48:05.186Z,51.85
2023-11-13T21:50:31.646Z,51.43
2023-11-13T21:52:58.089Z,52.01
2023-11-13T21:55:25.972Z,51.88
2023-11-13T21:57:52.467Z,51.79
2023-11-13T22:00:18.867Z,51.94
2023-11-13T22:02:45.609Z,51.73
2023-11-13T22:05:12.209Z,51.69
2023-11-13T22:07:41.976Z,51.33
2023-11-13T22:10:09.068Z,51.41
2023-11-13T22:12:36.122Z,51.39
2023-11-13T22:15:10.352Z,51.50
2023-11-13T22:17:38.858Z,52.09
2023-11-13T22:20:05.817Z,51.78
2023-11-13T22:22:32.310Z,51.65
2023-11-13T22:25:01.800Z,51.58
2023-11-13T22:27:28.183Z,51.45
2023-11-13T22:29:55.342Z,51.32
2023-11-13T22:32:22.308Z,51.62
2023-11-13T22:34:48.804Z,51.56
2023-11-13T22:37:15.284Z,51.43
2023-11-13T22:39:41.684Z,51.48
2023-11-13T22:42:08.241Z,51.34
2023-11-13T22:44:34.874Z,51.65
2023-11-13T22:47:01.461Z,51.36
2023-11-13T22:49:27.966Z,51.55
2023-11-13T22:51:54.758Z,51.53
2023-11-13T22:54:21.155Z,51.62
2023-11-13T22:56:47.597Z,51.50
2023-11-13T22:59:14.140Z,51.72
2023-11-13T23:01:41.705Z,51.69
2023-11-13T23:04:09.035Z,51.71
2023-11-13T23:06:35.468Z,51.59
2023-11-13T23:09:01.893Z,51.55
2023-11-13T23:11:28.345Z,51.64
2023-11-13T23:13:56.978Z,51.64
2023-11-13T23:16:23.715Z,51.73
2023-11-13T23:18:50.225Z,51.90
2023-11-13T23:21:16.681Z,51.60
2023-11-13T23:23:43.094Z,51.72
2023-11-13T23:26:10.332Z,51.96
2023-11-13T23:28:36.747Z,51.83
2023-11-13T23:31:03.427Z,52.01
2023-11-13T23:33:29.842Z,51.82
2023-11-13T23:35:56.229Z,52.15
2023-11-13T23:38:22.610Z,52.07
2023-11-13T23:40:49.521Z,51.93
2023-11-13T23:43:17.121Z,52.11
2023-11-13T23:45:43.556Z,52.08
2023-11-13T23:48:14.359Z,51.96
2023-11-13T23:50:43.687Z,52.19
2023-11-13T23:53:11.291Z,52.27
2023-11-13T23:55:37.744Z,52.18
2023-11-13T23:58:04.278Z,52.11
